sensor_id;sensor_type;location;lat;lon;timestamp;P1;durP1;ratioP1;P2;durP2;ratioP2
27758;SDS011;15148;48.972;12.794;2023-04-24T00:00:29;7.25;;;3.00;;
27758;SDS011;15148;48.972;12.794;2023-04-24T00:05:32;4.10;;;2.67;;
27758;SDS011;15148;48.972;12.794;2023-04-24T00:10:35;3.42;;;2.70;;
27758;SDS011;15148;48.972;12.794;2023-04-24T00:15:36;3.70;;;2.78;;
27758;SDS011;15148;48.972;12.794;2023-04-24T00:20:38;3.78;;;3.33;;
27758;SDS011;15148;48.972;12.794;2023-04-24T00:25:40;4.22;;;2.45;;
27758;SDS011;15148;48.972;12.794;2023-04-24T00:30:42;5.38;;;3.05;;
27758;SDS011;15148;48.972;12.794;2023-04-24T00:35:44;5.38;;;2.80;;
27758;SDS011;15148;48.972;12.794;2023-04-24T00:40:46;3.25;;;2.38;;
27758;SDS011;15148;48.972;12.794;2023-04-24T00:45:49;3.20;;;2.60;;
27758;SDS011;15148;48.972;12.794;2023-04-24T00:50:50;2.45;;;2.25;;
27758;SDS011;15148;48.972;12.794;2023-04-24T00:55:52;5.50;;;2.67;;
27758;SDS011;15148;48.972;12.794;2023-04-24T01:00:54;4.70;;;2.50;;
27758;SDS011;15148;48.972;12.794;2023-04-24T01:05:58;2.50;;;2.28;;
27758;SDS011;15148;48.972;12.794;2023-04-24T01:11:00;4.65;;;2.47;;
27758;SDS011;15148;48.972;12.794;2023-04-24T01:16:05;3.30;;;2.38;;
27758;SDS011;15148;48.972;12.794;2023-04-24T01:21:08;3.15;;;2.30;;
27758;SDS011;15148;48.972;12.794;2023-04-24T01:26:10;4.05;;;2.10;;
27758;SDS011;15148;48.972;12.794;2023-04-24T01:31:12;3.38;;;2.50;;
27758;SDS011;15148;48.972;12.794;2023-04-24T01:36:14;4.95;;;2.30;;
27758;SDS011;15148;48.972;12.794;2023-04-24T01:41:18;3.10;;;2.10;;
27758;SDS011;15148;48.972;12.794;2023-04-24T01:46:21;2.20;;;1.98;;
27758;SDS011;15148;48.972;12.794;2023-04-24T01:51:23;5.13;;;2.45;;
27758;SDS011;15148;48.972;12.794;2023-04-24T01:56:25;5.72;;;2.28;;
27758;SDS011;15148;48.972;12.794;2023-04-24T02:01:34;4.03;;;2.83;;
27758;SDS011;15148;48.972;12.794;2023-04-24T02:06:37;4.38;;;2.83;;
27758;SDS011;15148;48.972;12.794;2023-04-24T02:11:39;2.78;;;2.53;;
27758;SDS011;15148;48.972;12.794;2023-04-24T02:16:41;4.50;;;3.22;;
27758;SDS011;15148;48.972;12.794;2023-04-24T02:21:42;3.20;;;2.72;;
27758;SDS011;15148;48.972;12.794;2023-04-24T02:26:44;6.00;;;3.72;;
27758;SDS011;15148;48.972;12.794;2023-04-24T02:31:46;4.00;;;3.67;;
27758;SDS011;15148;48.972;12.794;2023-04-24T02:36:48;4.65;;;3.75;;
27758;SDS011;15148;48.972;12.794;2023-04-24T02:41:50;4.22;;;3.83;;
27758;SDS011;15148;48.972;12.794;2023-04-24T02:46:52;4.65;;;4.10;;
27758;SDS011;15148;48.972;12.794;2023-04-24T02:51:54;4.40;;;4.00;;
27758;SDS011;15148;48.972;12.794;2023-04-24T02:56:56;6.72;;;5.18;;
27758;SDS011;15148;48.972;12.794;2023-04-24T03:01:58;5.50;;;5.00;;
27758;SDS011;15148;48.972;12.794;2023-04-24T03:06:59;5.50;;;5.00;;
27758;SDS011;15148;48.972;12.794;2023-04-24T03:12:02;5.75;;;5.18;;
27758;SDS011;15148;48.972;12.794;2023-04-24T03:17:04;5.28;;;4.78;;
27758;SDS011;15148;48.972;12.794;2023-04-24T03:22:06;6.40;;;5.60;;
27758;SDS011;15148;48.972;12.794;2023-04-24T03:27:11;5.95;;;5.40;;
27758;SDS011;15148;48.972;12.794;2023-04-24T03:32:39;7.35;;;6.65;;
27758;SDS011;15148;48.972;12.794;2023-04-24T03:37:44;7.53;;;6.65;;
27758;SDS011;15148;48.972;12.794;2023-04-24T03:43:04;8.35;;;5.90;;
27758;SDS011;15148;48.972;12.794;2023-04-24T03:48:06;8.57;;;6.45;;
27758;SDS011;15148;48.972;12.794;2023-04-24T03:53:09;6.28;;;5.68;;
27758;SDS011;15148;48.972;12.794;2023-04-24T03:58:14;6.35;;;5.72;;
27758;SDS011;15148;48.972;12.794;2023-04-24T04:03:17;7.75;;;6.53;;
27758;SDS011;15148;48.972;12.794;2023-04-24T04:08:19;8.77;;;5.82;;
27758;SDS011;15148;48.972;12.794;2023-04-24T04:13:22;6.80;;;6.15;;
27758;SDS011;15148;48.972;12.794;2023-04-24T04:18:24;7.57;;;6.72;;
27758;SDS011;15148;48.972;12.794;2023-04-24T04:23:26;7.35;;;6.65;;
27758;SDS011;15148;48.972;12.794;2023-04-24T04:28:49;6.90;;;6.18;;
27758;SDS011;15148;48.972;12.794;2023-04-24T04:33:51;6.25;;;5.65;;
27758;SDS011;15148;48.972;12.794;2023-04-24T04:38:53;6.25;;;5.65;;
27758;SDS011;15148;48.972;12.794;2023-04-24T04:44:19;8.40;;;5.25;;
27758;SDS011;15148;48.972;12.794;2023-04-24T04:49:21;6.15;;;5.43;;
27758;SDS011;15148;48.972;12.794;2023-04-24T04:54:25;5.97;;;5.38;;
27758;SDS011;15148;48.972;12.794;2023-04-24T04:59:28;6.55;;;5.57;;
27758;SDS011;15148;48.972;12.794;2023-04-24T05:04:36;5.82;;;5.22;;
27758;SDS011;15148;48.972;12.794;2023-04-24T05:09:39;7.68;;;5.32;;
27758;SDS011;15148;48.972;12.794;2023-04-24T05:14:44;4.93;;;4.53;;
27758;SDS011;15148;48.972;12.794;2023-04-24T05:19:57;5.03;;;4.47;;
27758;SDS011;15148;48.972;12.794;2023-04-24T05:24:59;4.88;;;4.38;;
27758;SDS011;15148;48.972;12.794;2023-04-24T05:30:09;6.05;;;3.70;;
27758;SDS011;15148;48.972;12.794;2023-04-24T05:35:12;5.30;;;3.83;;
27758;SDS011;15148;48.972;12.794;2023-04-24T05:40:18;5.00;;;3.47;;
27758;SDS011;15148;48.972;12.794;2023-04-24T05:45:20;5.88;;;4.07;;
27758;SDS011;15148;48.972;12.794;2023-04-24T05:50:22;5.10;;;4.60;;
27758;SDS011;15148;48.972;12.794;2023-04-24T05:55:24;5.75;;;5.00;;
27758;SDS011;15148;48.972;12.794;2023-04-24T06:00:27;5.18;;;4.70;;
27758;SDS011;15148;48.972;12.794;2023-04-24T06:05:36;7.18;;;6.47;;
27758;SDS011;15148;48.972;12.794;2023-04-24T06:10:38;7.97;;;7.25;;
27758;SDS011;15148;48.972;12.794;2023-04-24T06:15:43;8.23;;;7.43;;
27758;SDS011;15148;48.972;12.794;2023-04-24T06:25:53;12.05;;;7.07;;
27758;SDS011;15148;48.972;12.794;2023-04-24T06:30:55;7.70;;;6.68;;
27758;SDS011;15148;48.972;12.794;2023-04-24T06:35:57;7.10;;;6.50;;
27758;SDS011;15148;48.972;12.794;2023-04-24T06:40:58;7.07;;;6.47;;
27758;SDS011;15148;48.972;12.794;2023-04-24T06:46:00;6.47;;;5.97;;
27758;SDS011;15148;48.972;12.794;2023-04-24T06:51:04;6.60;;;5.32;;
27758;SDS011;15148;48.972;12.794;2023-04-24T06:56:07;6.43;;;5.82;;
27758;SDS011;15148;48.972;12.794;2023-04-24T07:01:09;7.05;;;6.43;;
27758;SDS011;15148;48.972;12.794;2023-04-24T07:06:12;5.95;;;5.45;;
27758;SDS011;15148;48.972;12.794;2023-04-24T07:11:14;7.38;;;4.80;;
27758;SDS011;15148;48.972;12.794;2023-04-24T07:16:16;5.93;;;5.13;;
27758;SDS011;15148;48.972;12.794;2023-04-24T07:21:17;5.30;;;4.90;;
27758;SDS011;15148;48.972;12.794;2023-04-24T07:26:19;5.93;;;5.43;;
27758;SDS011;15148;48.972;12.794;2023-04-24T07:31:21;5.95;;;5.45;;
27758;SDS011;15148;48.972;12.794;2023-04-24T07:36:24;5.93;;;5.43;;
27758;SDS011;15148;48.972;12.794;2023-04-24T07:41:27;5.57;;;4.78;;
27758;SDS011;15148;48.972;12.794;2023-04-24T07:46:29;6.35;;;5.75;;
27758;SDS011;15148;48.972;12.794;2023-04-24T07:51:31;5.28;;;4.88;;
27758;SDS011;15148;48.972;12.794;2023-04-24T07:56:40;5.85;;;5.38;;
27758;SDS011;15148;48.972;12.794;2023-04-24T08:01:44;6.05;;;5.53;;
27758;SDS011;15148;48.972;12.794;2023-04-24T08:06:47;6.50;;;5.28;;
27758;SDS011;15148;48.972;12.794;2023-04-24T08:11:49;6.45;;;5.72;;
27758;SDS011;15148;48.972;12.794;2023-04-24T08:16:53;6.22;;;5.63;;
27758;SDS011;15148;48.972;12.794;2023-04-24T08:21:57;6.53;;;5.90;;
27758;SDS011;15148;48.972;12.794;2023-04-24T08:26:58;6.95;;;6.32;;
27758;SDS011;15148;48.972;12.794;2023-04-24T08:32:00;6.20;;;5.70;;
27758;SDS011;15148;48.972;12.794;2023-04-24T08:37:03;5.82;;;5.00;;
27758;SDS011;15148;48.972;12.794;2023-04-24T08:42:05;6.00;;;4.90;;
27758;SDS011;15148;48.972;12.794;2023-04-24T08:47:09;5.53;;;5.03;;
27758;SDS011;15148;48.972;12.794;2023-04-24T08:52:12;6.03;;;4.75;;
27758;SDS011;15148;48.972;12.794;2023-04-24T08:57:14;6.95;;;5.40;;
27758;SDS011;15148;48.972;12.794;2023-04-24T09:02:16;6.03;;;5.47;;
27758;SDS011;15148;48.972;12.794;2023-04-24T09:07:19;6.40;;;5.80;;
27758;SDS011;15148;48.972;12.794;2023-04-24T09:12:23;7.78;;;6.72;;
27758;SDS011;15148;48.972;12.794;2023-04-24T09:17:25;6.43;;;5.93;;
27758;SDS011;15148;48.972;12.794;2023-04-24T09:22:31;6.22;;;5.65;;
27758;SDS011;15148;48.972;12.794;2023-04-24T09:27:33;8.00;;;7.18;;
27758;SDS011;15148;48.972;12.794;2023-04-24T09:32:36;6.30;;;5.80;;
27758;SDS011;15148;48.972;12.794;2023-04-24T09:37:38;7.15;;;6.55;;
27758;SDS011;15148;48.972;12.794;2023-04-24T09:42:54;5.72;;;5.22;;
27758;SDS011;15148;48.972;12.794;2023-04-24T09:47:57;6.20;;;5.72;;
27758;SDS011;15148;48.972;12.794;2023-04-24T09:53:03;4.93;;;3.90;;
27758;SDS011;15148;48.972;12.794;2023-04-24T09:58:08;3.28;;;1.90;;
27758;SDS011;15148;48.972;12.794;2023-04-24T10:03:10;3.20;;;1.75;;
27758;SDS011;15148;48.972;12.794;2023-04-24T10:08:12;4.15;;;1.90;;
27758;SDS011;15148;48.972;12.794;2023-04-24T10:13:15;6.47;;;1.90;;
27758;SDS011;15148;48.972;12.794;2023-04-24T10:18:17;5.47;;;1.80;;
27758;SDS011;15148;48.972;12.794;2023-04-24T10:23:20;1.38;;;1.25;;
27758;SDS011;15148;48.972;12.794;2023-04-24T10:28:23;2.63;;;1.30;;
27758;SDS011;15148;48.972;12.794;2023-04-24T10:33:27;1.35;;;1.25;;
27758;SDS011;15148;48.972;12.794;2023-04-24T10:38:30;1.67;;;1.58;;
27758;SDS011;15148;48.972;12.794;2023-04-24T10:43:33;1.45;;;1.33;;
27758;SDS011;15148;48.972;12.794;2023-04-24T10:48:35;1.58;;;1.48;;
27758;SDS011;15148;48.972;12.794;2023-04-24T10:53:37;1.92;;;1.73;;
27758;SDS011;15148;48.972;12.794;2023-04-24T10:58:40;1.73;;;1.63;;
27758;SDS011;15148;48.972;12.794;2023-04-24T11:03:50;2.20;;;2.00;;
27758;SDS011;15148;48.972;12.794;2023-04-24T11:09:10;2.75;;;2.20;;
27758;SDS011;15148;48.972;12.794;2023-04-24T11:14:17;2.53;;;2.33;;
27758;SDS011;15148;48.972;12.794;2023-04-24T11:19:25;2.97;;;2.42;;
27758;SDS011;15148;48.972;12.794;2023-04-24T11:24:37;2.38;;;2.17;;
27758;SDS011;15148;48.972;12.794;2023-04-24T11:29:51;3.03;;;2.60;;
27758;SDS011;15148;48.972;12.794;2023-04-24T11:40:07;3.53;;;2.00;;
27758;SDS011;15148;48.972;12.794;2023-04-24T11:45:17;1.88;;;1.77;;
27758;SDS011;15148;48.972;12.794;2023-04-24T11:50:26;1.88;;;1.63;;
27758;SDS011;15148;48.972;12.794;2023-04-24T11:55:29;2.03;;;1.70;;
27758;SDS011;15148;48.972;12.794;2023-04-24T12:00:32;1.80;;;1.70;;
27758;SDS011;15148;48.972;12.794;2023-04-24T12:05:38;1.52;;;1.42;;
27758;SDS011;15148;48.972;12.794;2023-04-24T12:10:40;1.40;;;1.30;;
27758;SDS011;15148;48.972;12.794;2023-04-24T12:15:42;1.45;;;1.23;;
27758;SDS011;15148;48.972;12.794;2023-04-24T12:20:44;1.98;;;1.77;;
27758;SDS011;15148;48.972;12.794;2023-04-24T12:25:46;4.72;;;1.50;;
27758;SDS011;15148;48.972;12.794;2023-04-24T12:30:48;1.83;;;1.42;;
27758;SDS011;15148;48.972;12.794;2023-04-24T12:35:53;1.58;;;1.13;;
27758;SDS011;15148;48.972;12.794;2023-04-24T12:41:02;4.60;;;2.47;;
27758;SDS011;15148;48.972;12.794;2023-04-24T12:46:08;2.17;;;1.90;;
27758;SDS011;15148;48.972;12.794;2023-04-24T12:51:10;2.72;;;2.53;;
27758;SDS011;15148;48.972;12.794;2023-04-24T12:56:12;2.38;;;2.17;;
27758;SDS011;15148;48.972;12.794;2023-04-24T13:01:13;3.20;;;2.20;;
27758;SDS011;15148;48.972;12.794;2023-04-24T13:19:08;2.05;;;1.85;;
27758;SDS011;15148;48.972;12.794;2023-04-24T13:24:09;2.03;;;1.90;;
27758;SDS011;15148;48.972;12.794;2023-04-24T13:29:11;3.10;;;2.20;;
27758;SDS011;15148;48.972;12.794;2023-04-24T13:34:13;5.43;;;3.17;;
27758;SDS011;15148;48.972;12.794;2023-04-24T13:39:15;2.53;;;2.05;;
27758;SDS011;15148;48.972;12.794;2023-04-24T13:44:17;2.60;;;2.40;;
27758;SDS011;15148;48.972;12.794;2023-04-24T13:49:20;3.10;;;2.30;;
27758;SDS011;15148;48.972;12.794;2023-04-24T13:54:22;2.50;;;2.17;;
27758;SDS011;15148;48.972;12.794;2023-04-24T13:59:27;3.17;;;2.05;;
27758;SDS011;15148;48.972;12.794;2023-04-24T14:04:29;2.47;;;2.28;;
27758;SDS011;15148;48.972;12.794;2023-04-24T14:09:31;3.13;;;2.72;;
27758;SDS011;15148;48.972;12.794;2023-04-24T14:14:33;6.03;;;3.00;;
27758;SDS011;15148;48.972;12.794;2023-04-24T14:19:35;7.28;;;2.70;;
27758;SDS011;15148;48.972;12.794;2023-04-24T14:24:37;2.53;;;2.33;;
27758;SDS011;15148;48.972;12.794;2023-04-24T14:29:39;2.08;;;1.88;;
27758;SDS011;15148;48.972;12.794;2023-04-24T14:34:41;1.30;;;1.20;;
27758;SDS011;15148;48.972;12.794;2023-04-24T14:39:42;1.75;;;1.50;;
27758;SDS011;15148;48.972;12.794;2023-04-24T14:44:56;1.25;;;1.15;;
27758;SDS011;15148;48.972;12.794;2023-04-24T14:49:58;1.77;;;1.20;;
27758;SDS011;15148;48.972;12.794;2023-04-24T14:55:00;1.48;;;1.20;;
27758;SDS011;15148;48.972;12.794;2023-04-24T15:00:03;1.58;;;1.30;;
27758;SDS011;15148;48.972;12.794;2023-04-24T15:05:07;1.40;;;1.17;;
27758;SDS011;15148;48.972;12.794;2023-04-24T15:10:10;1.52;;;1.30;;
27758;SDS011;15148;48.972;12.794;2023-04-24T15:15:12;2.83;;;1.58;;
27758;SDS011;15148;48.972;12.794;2023-04-24T15:20:13;0.95;;;0.95;;
27758;SDS011;15148;48.972;12.794;2023-04-24T15:25:15;1.75;;;1.17;;
27758;SDS011;15148;48.972;12.794;2023-04-24T15:30:17;1.58;;;1.48;;
27758;SDS011;15148;48.972;12.794;2023-04-24T15:35:19;1.17;;;1.08;;
27758;SDS011;15148;48.972;12.794;2023-04-24T15:40:21;1.30;;;1.20;;
27758;SDS011;15148;48.972;12.794;2023-04-24T15:45:24;1.45;;;1.35;;
27758;SDS011;15148;48.972;12.794;2023-04-24T15:50:26;1.77;;;1.52;;
27758;SDS011;15148;48.972;12.794;2023-04-24T15:55:28;2.38;;;1.70;;
27758;SDS011;15148;48.972;12.794;2023-04-24T16:00:30;1.85;;;1.75;;
27758;SDS011;15148;48.972;12.794;2023-04-24T16:05:34;1.50;;;1.40;;
27758;SDS011;15148;48.972;12.794;2023-04-24T16:10:36;2.08;;;1.98;;
27758;SDS011;15148;48.972;12.794;2023-04-24T16:15:38;1.80;;;1.70;;
27758;SDS011;15148;48.972;12.794;2023-04-24T16:20:41;2.28;;;1.75;;
27758;SDS011;15148;48.972;12.794;2023-04-24T16:25:43;2.03;;;1.92;;
27758;SDS011;15148;48.972;12.794;2023-04-24T16:30:44;1.52;;;1.42;;
27758;SDS011;15148;48.972;12.794;2023-04-24T16:35:46;1.88;;;1.70;;
27758;SDS011;15148;48.972;12.794;2023-04-24T16:40:48;2.22;;;2.03;;
27758;SDS011;15148;48.972;12.794;2023-04-24T16:45:50;3.10;;;1.45;;
27758;SDS011;15148;48.972;12.794;2023-04-24T16:50:52;2.03;;;1.40;;
27758;SDS011;15148;48.972;12.794;2023-04-24T16:55:54;2.03;;;1.83;;
27758;SDS011;15148;48.972;12.794;2023-04-24T17:00:56;5.60;;;4.45;;
27758;SDS011;15148;48.972;12.794;2023-04-24T17:05:58;1.75;;;1.55;;
27758;SDS011;15148;48.972;12.794;2023-04-24T17:11:00;6.38;;;5.55;;
27758;SDS011;15148;48.972;12.794;2023-04-24T17:16:02;3.00;;;2.47;;
27758;SDS011;15148;48.972;12.794;2023-04-24T17:21:04;2.88;;;2.35;;
27758;SDS011;15148;48.972;12.794;2023-04-24T17:26:06;4.15;;;3.08;;
27758;SDS011;15148;48.972;12.794;2023-04-24T17:31:08;11.25;;;9.00;;
27758;SDS011;15148;48.972;12.794;2023-04-24T17:36:10;16.52;;;10.50;;
27758;SDS011;15148;48.972;12.794;2023-04-24T17:41:12;15.93;;;8.98;;
27758;SDS011;15148;48.972;12.794;2023-04-24T17:46:16;18.38;;;10.88;;
27758;SDS011;15148;48.972;12.794;2023-04-24T17:51:18;11.27;;;7.30;;
27758;SDS011;15148;48.972;12.794;2023-04-24T17:56:20;21.60;;;13.35;;
27758;SDS011;15148;48.972;12.794;2023-04-24T18:01:23;115.68;;;56.55;;
27758;SDS011;15148;48.972;12.794;2023-04-24T18:06:25;61.08;;;30.33;;
27758;SDS011;15148;48.972;12.794;2023-04-24T18:11:27;7.95;;;5.85;;
27758;SDS011;15148;48.972;12.794;2023-04-24T18:16:29;2.67;;;2.47;;
27758;SDS011;15148;48.972;12.794;2023-04-24T18:21:31;5.82;;;4.60;;
27758;SDS011;15148;48.972;12.794;2023-04-24T18:26:32;7.38;;;5.97;;
27758;SDS011;15148;48.972;12.794;2023-04-24T18:31:34;2.10;;;1.65;;
27758;SDS011;15148;48.972;12.794;2023-04-24T18:36:36;3.40;;;2.30;;
27758;SDS011;15148;48.972;12.794;2023-04-24T18:41:38;8.18;;;7.30;;
27758;SDS011;15148;48.972;12.794;2023-04-24T18:46:40;5.07;;;3.90;;
27758;SDS011;15148;48.972;12.794;2023-04-24T18:51:42;3.20;;;2.90;;
27758;SDS011;15148;48.972;12.794;2023-04-24T18:56:54;5.82;;;2.00;;
27758;SDS011;15148;48.972;12.794;2023-04-24T19:01:57;1.98;;;1.75;;
27758;SDS011;15148;48.972;12.794;2023-04-24T19:06:59;2.35;;;2.17;;
27758;SDS011;15148;48.972;12.794;2023-04-24T19:12:01;4.32;;;2.15;;
27758;SDS011;15148;48.972;12.794;2023-04-24T19:17:03;5.65;;;3.47;;
27758;SDS011;15148;48.972;12.794;2023-04-24T19:22:05;2.13;;;1.92;;
27758;SDS011;15148;48.972;12.794;2023-04-24T19:27:07;3.45;;;2.30;;
27758;SDS011;15148;48.972;12.794;2023-04-24T19:32:09;2.35;;;2.15;;
27758;SDS011;15148;48.972;12.794;2023-04-24T19:37:11;2.47;;;2.28;;
27758;SDS011;15148;48.972;12.794;2023-04-24T19:42:13;2.33;;;2.13;;
27758;SDS011;15148;48.972;12.794;2023-04-24T19:47:15;2.58;;;1.90;;
27758;SDS011;15148;48.972;12.794;2023-04-24T19:52:17;4.38;;;2.40;;
27758;SDS011;15148;48.972;12.794;2023-04-24T19:57:19;4.22;;;2.60;;
27758;SDS011;15148;48.972;12.794;2023-04-24T20:02:21;2.90;;;2.10;;
27758;SDS011;15148;48.972;12.794;2023-04-24T20:07:23;3.55;;;2.20;;
27758;SDS011;15148;48.972;12.794;2023-04-24T20:12:27;5.47;;;1.92;;
27758;SDS011;15148;48.972;12.794;2023-04-24T20:17:29;3.17;;;1.90;;
27758;SDS011;15148;48.972;12.794;2023-04-24T20:22:31;2.15;;;1.95;;
27758;SDS011;15148;48.972;12.794;2023-04-24T20:27:38;2.55;;;1.90;;
27758;SDS011;15148;48.972;12.794;2023-04-24T20:32:41;2.10;;;2.00;;
27758;SDS011;15148;48.972;12.794;2023-04-24T20:37:43;3.92;;;2.05;;
27758;SDS011;15148;48.972;12.794;2023-04-24T20:42:45;2.03;;;1.88;;
27758;SDS011;15148;48.972;12.794;2023-04-24T20:47:47;3.78;;;2.15;;
27758;SDS011;15148;48.972;12.794;2023-04-24T20:52:51;2.38;;;2.15;;
27758;SDS011;15148;48.972;12.794;2023-04-24T20:57:52;3.03;;;2.45;;
27758;SDS011;15148;48.972;12.794;2023-04-24T21:02:54;2.65;;;2.25;;
27758;SDS011;15148;48.972;12.794;2023-04-24T21:07:56;5.03;;;2.58;;
27758;SDS011;15148;48.972;12.794;2023-04-24T21:12:58;2.17;;;2.03;;
27758;SDS011;15148;48.972;12.794;2023-04-24T21:18:00;2.75;;;2.50;;
27758;SDS011;15148;48.972;12.794;2023-04-24T21:23:02;3.60;;;2.30;;
27758;SDS011;15148;48.972;12.794;2023-04-24T21:28:04;3.08;;;2.22;;
27758;SDS011;15148;48.972;12.794;2023-04-24T21:33:06;2.92;;;2.40;;
27758;SDS011;15148;48.972;12.794;2023-04-24T21:38:08;3.50;;;2.30;;
27758;SDS011;15148;48.972;12.794;2023-04-24T21:43:10;3.60;;;2.17;;
27758;SDS011;15148;48.972;12.794;2023-04-24T21:48:12;2.92;;;2.40;;
27758;SDS011;15148;48.972;12.794;2023-04-24T21:53:14;3.58;;;2.33;;
27758;SDS011;15148;48.972;12.794;2023-04-24T21:58:16;4.05;;;2.28;;
27758;SDS011;15148;48.972;12.794;2023-04-24T22:03:18;2.60;;;2.40;;
27758;SDS011;15148;48.972;12.794;2023-04-24T22:08:20;3.50;;;2.17;;
27758;SDS011;15148;48.972;12.794;2023-04-24T22:13:22;3.05;;;1.92;;
27758;SDS011;15148;48.972;12.794;2023-04-24T22:18:23;2.50;;;2.30;;
27758;SDS011;15148;48.972;12.794;2023-04-24T22:23:40;2.75;;;2.40;;
27758;SDS011;15148;48.972;12.794;2023-04-24T22:28:42;3.95;;;2.60;;
27758;SDS011;15148;48.972;12.794;2023-04-24T22:33:44;2.92;;;2.45;;
27758;SDS011;15148;48.972;12.794;2023-04-24T22:38:47;4.10;;;2.65;;
27758;SDS011;15148;48.972;12.794;2023-04-24T22:43:49;5.70;;;2.58;;
27758;SDS011;15148;48.972;12.794;2023-04-24T22:48:52;3.45;;;2.92;;
27758;SDS011;15148;48.972;12.794;2023-04-24T22:53:54;4.20;;;2.85;;
27758;SDS011;15148;48.972;12.794;2023-04-24T22:58:57;3.08;;;2.40;;
27758;SDS011;15148;48.972;12.794;2023-04-24T23:03:59;5.32;;;2.50;;
27758;SDS011;15148;48.972;12.794;2023-04-24T23:09:00;5.40;;;3.00;;
27758;SDS011;15148;48.972;12.794;2023-04-24T23:14:02;3.33;;;2.88;;
27758;SDS011;15148;48.972;12.794;2023-04-24T23:19:04;3.90;;;2.83;;
27758;SDS011;15148;48.972;12.794;2023-04-24T23:24:06;3.22;;;2.92;;
27758;SDS011;15148;48.972;12.794;2023-04-24T23:29:08;2.92;;;2.72;;
27758;SDS011;15148;48.972;12.794;2023-04-24T23:34:10;2.90;;;2.70;;
27758;SDS011;15148;48.972;12.794;2023-04-24T23:39:12;4.47;;;3.00;;
27758;SDS011;15148;48.972;12.794;2023-04-24T23:44:14;4.15;;;2.80;;
27758;SDS011;15148;48.972;12.794;2023-04-24T23:49:16;5.43;;;2.72;;
27758;SDS011;15148;48.972;12.794;2023-04-24T23:54:17;3.60;;;3.22;;
27758;SDS011;15148;48.972;12.794;2023-04-24T23:59:20;3.25;;;2.92;;
